createdAt,value
2017-10-18T00:01:42.862Z,29.97
2017-10-18T00:04:45.917Z,33.80
2017-10-18T00:07:47.912Z,27.73
2017-10-18T00:10:51.047Z,24.93
2017-10-18T00:13:53.142Z,23.13
2017-10-18T00:16:55.930Z,26.93
2017-10-18T00:19:58.625Z,22.53
2017-10-18T00:23:00.573Z,33.43
2017-10-18T00:26:02.631Z,24.93
2017-10-18T00:29:05.497Z,24.97
2017-10-18T00:32:07.437Z,21.07
2017-10-18T00:35:09.824Z,26.33
2017-10-18T00:38:11.797Z,23.00
2017-10-18T00:41:13.761Z,20.60
2017-10-18T00:44:16.462Z,18.40
2017-10-18T00:47:19.246Z,19.47
2017-10-18T00:50:21.951Z,30.67
2017-10-18T00:53:24.745Z,24.13
2017-10-18T00:56:26.839Z,22.87
2017-10-18T00:59:29.663Z,14.07
2017-10-18T01:02:31.659Z,17.37
2017-10-18T01:05:34.039Z,31.20
2017-10-18T01:08:36.125Z,20.80
2017-10-18T01:11:38.203Z,24.43
2017-10-18T01:14:40.162Z,23.90
2017-10-18T01:17:43.370Z,30.43
2017-10-18T01:20:45.885Z,32.90
2017-10-18T01:23:48.712Z,31.97
2017-10-18T01:26:50.681Z,30.07
2017-10-18T01:29:52.761Z,33.60
2017-10-18T01:32:56.256Z,41.90
2017-10-18T01:35:59.585Z,44.57
2017-10-18T01:39:02.293Z,29.27
2017-10-18T01:42:05.110Z,20.93
2017-10-18T01:45:07.054Z,29.47
2017-10-18T01:48:09.370Z,28.03
2017-10-18T01:51:12.058Z,25.67
2017-10-18T01:54:15.149Z,32.63
2017-10-18T01:57:17.153Z,31.00
2017-10-18T02:00:20.245Z,34.37
2017-10-18T02:03:22.191Z,23.70
2017-10-18T02:06:24.540Z,31.27
2017-10-18T02:09:27.442Z,19.53
2017-10-18T02:12:30.200Z,20.70
2017-10-18T02:15:32.124Z,25.83
2017-10-18T02:18:35.317Z,23.97
2017-10-18T02:21:37.258Z,25.07
2017-10-18T02:24:39.606Z,26.07
2017-10-18T02:27:42.294Z,18.10
2017-10-18T02:30:44.581Z,26.87
2017-10-18T02:33:46.573Z,29.00
2017-10-18T02:36:48.518Z,38.80
2017-10-18T02:39:50.602Z,33.73
2017-10-18T02:42:52.688Z,27.77
2017-10-18T02:45:54.611Z,22.20
2017-10-18T02:48:56.577Z,30.50
2017-10-18T02:51:58.527Z,20.80
2017-10-18T02:55:01.105Z,20.33
2017-10-18T02:58:03.073Z,41.23
2017-10-18T03:01:05.158Z,33.20
2017-10-18T03:04:07.846Z,34.90
2017-10-18T03:07:10.607Z,22.00
2017-10-18T03:10:12.616Z,27.47
2017-10-18T03:13:15.041Z,40.80
2017-10-18T03:16:17.060Z,43.03
2017-10-18T03:19:19.856Z,38.00
2017-10-18T03:22:21.795Z,43.97
2017-10-18T03:25:24.623Z,43.33
2017-10-18T03:28:26.548Z,38.07
2017-10-18T03:31:28.889Z,35.60
2017-10-18T03:34:30.833Z,30.57
2017-10-18T03:37:32.809Z,36.03
2017-10-18T03:40:36.340Z,57.20
2017-10-18T03:43:38.306Z,53.23
2017-10-18T03:46:40.305Z,38.93
2017-10-18T03:49:42.313Z,33.70
2017-10-18T03:52:45.094Z,42.53
2017-10-18T03:55:47.042Z,42.33
2017-10-18T03:58:49.096Z,37.27
2017-10-18T04:01:51.471Z,32.30
2017-10-18T04:04:54.278Z,36.97
2017-10-18T04:07:56.370Z,35.27
2017-10-18T04:10:58.346Z,37.23
2017-10-18T04:14:01.148Z,34.80
2017-10-18T04:17:03.110Z,39.80
2017-10-18T04:20:05.392Z,38.03
2017-10-18T04:23:07.400Z,40.33
2017-10-18T04:26:10.495Z,36.83
2017-10-18T04:29:13.193Z,31.70
2017-10-18T04:32:15.265Z,33.27
2017-10-18T04:35:17.282Z,44.77
2017-10-18T04:38:19.338Z,42.37
2017-10-18T04:41:21.270Z,38.60
2017-10-18T04:44:23.228Z,40.23
2017-10-18T04:47:25.171Z,37.27
2017-10-18T04:50:27.141Z,44.20
2017-10-18T04:53:29.089Z,36.80
2017-10-18T04:56:31.158Z,43.33
2017-10-18T04:59:33.962Z,38.93
2017-10-18T05:02:36.380Z,43.73
2017-10-18T05:05:38.316Z,35.10
2017-10-18T05:08:40.262Z,41.93
2017-10-18T05:11:42.186Z,39.00
2017-10-18T05:14:44.486Z,49.33
2017-10-18T05:17:46.445Z,46.90
2017-10-18T05:20:48.395Z,43.60
2017-10-18T05:23:50.342Z,49.57
2017-10-18T05:26:52.698Z,45.30
2017-10-18T05:29:54.695Z,38.90
2017-10-18T05:32:57.920Z,44.93
2017-10-18T05:36:00.742Z,52.87
2017-10-18T05:39:03.088Z,59.43
2017-10-18T05:42:05.721Z,48.53
2017-10-18T05:45:07.675Z,52.70
2017-10-18T05:48:10.378Z,43.67
2017-10-18T05:51:12.679Z,56.40
2017-10-18T05:54:15.368Z,58.43
2017-10-18T05:57:17.802Z,47.43
2017-10-18T06:00:19.794Z,43.80
2017-10-18T06:03:22.142Z,45.90
2017-10-18T06:06:25.049Z,55.90
2017-10-18T06:09:28.173Z,52.53
2017-10-18T06:12:30.162Z,49.60
2017-10-18T06:15:32.237Z,54.03
2017-10-18T06:18:35.013Z,42.07
2017-10-18T06:21:36.992Z,56.37
2017-10-18T06:24:38.943Z,43.10
2017-10-18T06:27:41.850Z,55.63
2017-10-18T06:30:43.877Z,48.20
2017-10-18T06:33:45.821Z,47.87
2017-10-18T06:36:47.839Z,43.10
2017-10-18T06:39:50.647Z,38.67
2017-10-18T06:42:52.629Z,45.60
2017-10-18T06:45:54.922Z,41.70
2017-10-18T06:48:57.605Z,36.63
2017-10-18T06:51:59.883Z,36.57
2017-10-18T06:55:01.894Z,42.67
2017-10-18T06:58:04.706Z,30.37
2017-10-18T07:01:07.489Z,34.13
2017-10-18T07:04:09.610Z,35.37
2017-10-18T07:07:11.553Z,34.77
2017-10-18T07:10:13.565Z,33.80
2017-10-18T07:13:16.286Z,35.67
2017-10-18T07:16:18.335Z,39.22
2017-10-18T07:19:21.044Z,37.17
2017-10-18T07:22:23.796Z,28.60
2017-10-18T07:25:25.814Z,27.70
2017-10-18T07:28:28.122Z,27.83
2017-10-18T07:31:30.917Z,33.35
2017-10-18T07:34:33.630Z,33.55
2017-10-18T07:37:36.432Z,27.90
2017-10-18T07:40:38.826Z,31.87
2017-10-18T07:43:40.915Z,27.48
2017-10-18T07:46:42.997Z,40.10
2017-10-18T07:49:45.274Z,28.55
2017-10-18T07:52:48.129Z,34.10
2017-10-18T07:55:50.086Z,24.08
2017-10-18T07:58:52.572Z,28.25
2017-10-18T08:01:54.951Z,27.98
2017-10-18T08:04:58.042Z,24.98
2017-10-18T08:08:00.758Z,26.90
2017-10-18T08:11:02.782Z,24.60
2017-10-18T08:14:04.719Z,32.13
2017-10-18T08:17:07.510Z,27.80
2017-10-18T08:20:09.522Z,27.33
2017-10-18T08:23:11.896Z,31.58
2017-10-18T08:26:14.612Z,34.90
2017-10-18T08:29:16.672Z,26.33
2017-10-18T08:32:18.614Z,30.00
2017-10-18T08:35:20.923Z,23.85
2017-10-18T08:38:22.851Z,24.52
2017-10-18T08:41:24.862Z,23.70
2017-10-18T08:44:26.798Z,20.27
2017-10-18T08:47:29.085Z,24.73
2017-10-18T08:50:31.026Z,21.37
2017-10-18T08:53:33.374Z,18.15
2017-10-18T08:56:36.189Z,18.52
2017-10-18T08:59:38.576Z,18.80
2017-10-18T09:02:41.277Z,24.00
2017-10-18T09:05:44.392Z,29.25
2017-10-18T09:08:47.193Z,25.62
2017-10-18T09:11:50.315Z,20.42
2017-10-18T09:14:52.248Z,21.62
2017-10-18T09:17:54.856Z,18.58
2017-10-18T09:20:56.843Z,20.35
2017-10-18T09:23:59.142Z,23.08
2017-10-18T09:27:01.341Z,18.73
2017-10-18T09:30:04.140Z,20.98
2017-10-18T09:33:06.855Z,21.98
2017-10-18T09:36:09.951Z,21.12
2017-10-18T09:39:11.943Z,18.10
2017-10-18T09:42:15.033Z,18.17
2017-10-18T09:45:17.810Z,18.73
2017-10-18T09:48:20.166Z,18.10
2017-10-18T09:51:22.116Z,18.73
2017-10-18T09:54:25.226Z,18.08
2017-10-18T09:57:27.158Z,17.77
2017-10-18T10:00:29.514Z,18.55
2017-10-18T10:03:32.241Z,19.67
2017-10-18T10:06:34.604Z,20.12
2017-10-18T10:09:37.443Z,20.23
2017-10-18T10:12:40.134Z,16.62
2017-10-18T10:15:42.075Z,18.60
2017-10-18T10:18:44.195Z,16.25
2017-10-18T10:21:46.130Z,21.83
2017-10-18T10:24:48.126Z,17.55
2017-10-18T10:27:50.103Z,20.50
2017-10-18T10:30:52.418Z,15.80
2017-10-18T10:33:55.315Z,20.48
2017-10-18T10:36:58.429Z,16.17
2017-10-18T10:40:01.254Z,20.88
2017-10-18T10:43:03.329Z,19.42
2017-10-18T10:46:05.280Z,17.45
2017-10-18T10:49:07.570Z,16.55
2017-10-18T10:52:11.014Z,22.33
2017-10-18T10:55:13.759Z,18.15
2017-10-18T10:58:15.892Z,18.50
2017-10-18T11:01:19.016Z,21.10
2017-10-18T11:04:20.938Z,17.85
2017-10-18T11:07:23.098Z,17.67
2017-10-18T11:10:25.039Z,22.50
2017-10-18T11:13:27.480Z,17.90
2017-10-18T11:16:29.435Z,20.23
2017-10-18T11:19:32.240Z,19.25
2017-10-18T11:22:35.038Z,20.83
2017-10-18T11:25:37.837Z,21.17
2017-10-18T11:28:40.644Z,22.35
2017-10-18T11:31:43.859Z,33.00
2017-10-18T11:34:45.817Z,26.15
2017-10-18T11:37:47.797Z,20.73
2017-10-18T11:40:49.850Z,22.90
2017-10-18T11:43:51.869Z,20.55
2017-10-18T11:46:53.806Z,22.85
2017-10-18T11:49:56.148Z,23.25
2017-10-18T11:52:58.152Z,22.75
2017-10-18T11:56:00.210Z,21.70
2017-10-18T11:59:02.141Z,23.58
2017-10-18T12:02:04.377Z,25.80
2017-10-18T12:05:06.369Z,20.80
2017-10-18T12:08:08.784Z,20.10
2017-10-18T12:11:10.865Z,22.65
2017-10-18T12:14:13.714Z,26.35
2017-10-18T12:17:15.756Z,28.70
2017-10-18T12:20:17.850Z,24.40
2017-10-18T12:23:20.016Z,24.37
2017-10-18T12:26:23.075Z,26.02
2017-10-18T12:29:25.108Z,27.25
2017-10-18T12:32:28.039Z,35.08
2017-10-18T12:35:29.982Z,25.45
2017-10-18T12:38:32.301Z,34.33
2017-10-18T12:41:34.273Z,26.40
2017-10-18T12:44:37.409Z,32.30
2017-10-18T12:47:39.513Z,27.08
2017-10-18T12:50:41.570Z,25.08
2017-10-18T12:53:43.498Z,26.20
2017-10-18T12:56:45.823Z,22.23
2017-10-18T12:59:47.823Z,21.95
2017-10-18T13:02:51.729Z,23.35
2017-10-18T13:05:53.740Z,27.90
2017-10-18T13:08:56.208Z,27.42
2017-10-18T13:11:58.403Z,21.45
2017-10-18T13:15:01.553Z,28.35
2017-10-18T13:18:03.500Z,22.85
2017-10-18T13:21:06.299Z,24.27
2017-10-18T13:24:08.958Z,28.33
2017-10-18T13:27:11.310Z,22.15
2017-10-18T13:30:13.312Z,26.52
2017-10-18T13:33:15.300Z,26.17
2017-10-18T13:36:17.274Z,29.87
2017-10-18T13:39:19.670Z,28.60
2017-10-18T13:42:21.622Z,24.83
2017-10-18T13:45:24.754Z,23.90
2017-10-18T13:48:26.731Z,26.92
2017-10-18T13:51:28.862Z,29.48
2017-10-18T13:54:32.346Z,28.35
2017-10-18T13:57:34.638Z,29.12
2017-10-18T14:00:36.592Z,30.08
2017-10-18T14:03:38.909Z,27.85
2017-10-18T14:06:40.889Z,25.12
2017-10-18T14:09:42.856Z,30.17
2017-10-18T14:12:44.803Z,32.22
2017-10-18T14:15:47.509Z,32.28
2017-10-18T14:18:49.514Z,32.20
2017-10-18T14:21:51.496Z,33.53
2017-10-18T14:24:53.441Z,34.63
2017-10-18T14:27:55.546Z,28.42
2017-10-18T14:30:57.596Z,29.00
2017-10-18T14:34:00.063Z,30.65
2017-10-18T14:37:02.783Z,32.85
2017-10-18T14:40:05.165Z,26.15
2017-10-18T14:43:07.957Z,34.63
2017-10-18T14:46:09.940Z,30.17
2017-10-18T14:49:12.656Z,28.52
2017-10-18T14:52:15.786Z,46.67
2017-10-18T14:55:17.717Z,32.80
2017-10-18T14:58:19.726Z,25.85
2017-10-18T15:01:22.523Z,38.63
2017-10-18T15:04:26.053Z,31.73
2017-10-18T15:07:28.873Z,26.58
2017-10-18T15:10:31.006Z,34.47
2017-10-18T15:13:32.952Z,32.00
2017-10-18T15:16:35.066Z,30.10
2017-10-18T15:19:37.006Z,33.50
2017-10-18T15:22:39.842Z,30.00
2017-10-18T15:25:41.793Z,35.92
2017-10-18T15:28:43.785Z,32.40
2017-10-18T15:31:46.570Z,30.60
2017-10-18T15:34:48.871Z,29.85
2017-10-18T15:37:50.986Z,35.20
2017-10-18T15:40:53.063Z,40.12
2017-10-18T15:43:55.228Z,41.65
2017-10-18T15:46:58.041Z,32.17
2017-10-18T15:50:00.834Z,45.42
2017-10-18T15:53:04.051Z,40.63
2017-10-18T15:56:06.886Z,35.08
2017-10-18T15:59:08.985Z,48.65
2017-10-18T16:02:11.046Z,41.88
2017-10-18T16:05:12.998Z,37.72
2017-10-18T16:08:15.798Z,44.15
2017-10-18T16:11:18.546Z,46.17
2017-10-18T16:14:20.610Z,41.60
2017-10-18T16:17:23.013Z,40.15
2017-10-18T16:20:24.943Z,44.67
2017-10-18T16:23:26.926Z,44.08
2017-10-18T16:26:29.648Z,38.05
2017-10-18T16:29:32.778Z,42.55
2017-10-18T16:32:35.560Z,36.47
2017-10-18T16:35:38.663Z,39.35
2017-10-18T16:38:40.857Z,37.35
2017-10-18T16:41:43.757Z,35.67
2017-10-18T16:44:46.557Z,37.58
2017-10-18T16:47:48.582Z,37.90
2017-10-18T16:50:51.502Z,40.00
2017-10-18T16:53:53.563Z,33.05
2017-10-18T16:56:55.496Z,33.85
2017-10-18T16:59:58.512Z,38.95
2017-10-18T17:03:00.526Z,34.95
2017-10-18T17:06:03.728Z,33.58
2017-10-18T17:09:06.546Z,42.13
2017-10-18T17:12:08.621Z,43.38
2017-10-18T17:15:11.322Z,31.90
2017-10-18T17:18:14.137Z,47.17
2017-10-18T17:21:16.122Z,38.70
2017-10-18T17:24:18.204Z,35.55
2017-10-18T17:27:20.272Z,36.78
2017-10-18T17:30:23.402Z,30.65
2017-10-18T17:33:25.357Z,38.50
2017-10-18T17:36:28.459Z,40.12
2017-10-18T17:39:30.426Z,39.08
2017-10-18T17:42:32.449Z,34.15
2017-10-18T17:45:34.430Z,34.72
2017-10-18T17:48:37.486Z,31.80
2017-10-18T17:51:39.437Z,41.42
2017-10-18T17:54:41.478Z,38.80
2017-10-18T17:57:43.549Z,42.17
2017-10-18T18:00:45.923Z,42.22
2017-10-18T18:03:47.964Z,37.47
2017-10-18T18:06:51.105Z,48.87
2017-10-18T18:09:53.051Z,57.33
2017-10-18T18:12:55.030Z,42.62
2017-10-18T18:15:57.862Z,39.20
2017-10-18T18:18:59.862Z,43.28
2017-10-18T18:22:01.806Z,40.50
2017-10-18T18:25:04.957Z,39.92
2017-10-18T18:28:07.003Z,37.25
2017-10-18T18:31:10.129Z,39.40
2017-10-18T18:34:12.068Z,34.95
2017-10-18T18:37:15.529Z,36.95
2017-10-18T18:40:17.495Z,38.00
2017-10-18T18:43:20.539Z,36.22
2017-10-18T18:46:22.497Z,40.22
2017-10-18T18:49:25.596Z,37.65
2017-10-18T18:52:28.492Z,39.47
2017-10-18T18:55:30.886Z,45.78
2017-10-18T18:58:32.835Z,45.20
2017-10-18T19:01:34.832Z,31.52
2017-10-18T19:04:36.845Z,46.70
2017-10-18T19:07:39.594Z,42.33
2017-10-18T19:10:41.574Z,47.60
2017-10-18T19:13:43.873Z,38.72
2017-10-18T19:16:45.817Z,39.28
2017-10-18T19:19:48.567Z,36.72
2017-10-18T19:22:50.530Z,38.55
2017-10-18T19:25:52.571Z,27.40
2017-10-18T19:28:55.398Z,35.03
2017-10-18T19:31:57.690Z,37.20
2017-10-18T19:34:59.722Z,42.28
2017-10-18T19:38:01.753Z,42.60
2017-10-18T19:41:04.066Z,37.67
2017-10-18T19:44:06.154Z,39.60
2017-10-18T19:47:08.095Z,39.65
2017-10-18T19:50:10.901Z,36.87
2017-10-18T19:53:13.601Z,36.60
2017-10-18T19:56:16.433Z,31.60
2017-10-18T19:59:18.406Z,28.67
2017-10-18T20:02:20.831Z,36.63
2017-10-18T20:05:22.886Z,31.48
2017-10-18T20:08:24.985Z,43.87
2017-10-18T20:11:26.970Z,33.42
2017-10-18T20:14:29.334Z,29.70
2017-10-18T20:17:32.154Z,34.83
2017-10-18T20:20:35.137Z,30.17
2017-10-18T20:23:37.153Z,23.73
2017-10-18T20:26:39.576Z,36.78
2017-10-18T20:29:41.555Z,40.72
2017-10-18T20:32:43.902Z,28.33
2017-10-18T20:35:46.632Z,39.55
2017-10-18T20:38:49.400Z,40.45
2017-10-18T20:41:52.088Z,36.08
2017-10-18T20:44:54.393Z,33.03
2017-10-18T20:47:57.094Z,43.40
2017-10-18T20:51:00.023Z,37.22
2017-10-18T20:54:01.965Z,42.30
2017-10-18T20:57:04.291Z,35.33
2017-10-18T21:00:06.245Z,32.45
2017-10-18T21:03:08.543Z,40.25
2017-10-18T21:06:11.245Z,46.67
2017-10-18T21:09:14.065Z,43.53
2017-10-18T21:12:16.005Z,44.50
2017-10-18T21:15:18.060Z,47.13
2017-10-18T21:18:20.015Z,39.60
2017-10-18T21:21:22.036Z,40.10
2017-10-18T21:24:24.109Z,34.40
2017-10-18T21:27:26.268Z,47.63
2017-10-18T21:30:29.075Z,44.38
2017-10-18T21:33:31.482Z,45.70
2017-10-18T21:36:33.447Z,53.77
2017-10-18T21:39:36.533Z,51.70
2017-10-18T21:42:38.822Z,41.73
2017-10-18T21:45:41.634Z,40.45
2017-10-18T21:48:43.565Z,41.37
2017-10-18T21:51:45.770Z,41.63
2017-10-18T21:54:47.890Z,59.27
2017-10-18T21:57:50.219Z,50.28
2017-10-18T22:00:52.270Z,44.80
2017-10-18T22:03:54.229Z,43.03
2017-10-18T22:06:56.242Z,39.43
2017-10-18T22:09:59.367Z,43.97
2017-10-18T22:13:01.342Z,34.10
2017-10-18T22:16:04.454Z,41.10
2017-10-18T22:19:07.156Z,45.17
2017-10-18T22:22:09.874Z,36.60
2017-10-18T22:25:12.021Z,58.00
2017-10-18T22:28:14.172Z,49.57
2017-10-18T22:31:16.217Z,51.50
2017-10-18T22:34:19.087Z,31.70
2017-10-18T22:37:21.081Z,40.63
2017-10-18T22:40:23.084Z,43.55
2017-10-18T22:43:25.906Z,35.63
2017-10-18T22:46:28.370Z,39.43
2017-10-18T22:49:31.070Z,34.10
2017-10-18T22:52:34.170Z,30.13
2017-10-18T22:55:36.116Z,45.53
2017-10-18T22:58:38.470Z,46.03
2017-10-18T23:01:40.449Z,44.37
2017-10-18T23:04:43.516Z,50.37
2017-10-18T23:07:45.501Z,54.57
2017-10-18T23:10:48.130Z,50.03
2017-10-18T23:13:50.849Z,44.43
2017-10-18T23:16:53.209Z,54.67
2017-10-18T23:19:55.626Z,65.47
2017-10-18T23:22:58.731Z,53.77
2017-10-18T23:26:01.556Z,60.87
2017-10-18T23:29:03.913Z,58.17
2017-10-18T23:32:06.864Z,49.83
2017-10-18T23:35:08.862Z,57.60
2017-10-18T23:38:10.804Z,68.75
2017-10-18T23:41:13.670Z,61.03
2017-10-18T23:44:15.693Z,61.43
2017-10-18T23:47:18.446Z,70.67
2017-10-18T23:50:20.462Z,68.10
2017-10-18T23:53:22.625Z,59.90
2017-10-18T23:56:25.577Z,62.67
2017-10-18T23:59:27.592Z,69.53
